sensor_id;sensor_type;location;lat;lon;timestamp;temperature;humidity
23729;DHT22;12045;60.214;24.724;2024-03-06T00:01:52;-1.80;99.90
23729;DHT22;12045;60.214;24.724;2024-03-06T00:04:21;-2.00;99.90
23729;DHT22;12045;60.214;24.724;2024-03-06T00:06:49;0.30;99.90
23729;DHT22;12045;60.214;24.724;2024-03-06T00:09:20;-0.20;99.90
23729;DHT22;12045;60.214;24.724;2024-03-06T00:11:50;-2.10;99.90
23729;DHT22;12045;60.214;24.724;2024-03-06T00:14:22;-0.50;99.90
23729;DHT22;12045;60.214;24.724;2024-03-06T00:16:51;-1.90;99.90
23729;DHT22;12045;60.214;24.724;2024-03-06T00:19:19;-2.30;99.90
23729;DHT22;12045;60.214;24.724;2024-03-06T00:21:47;-2.00;99.90
23729;DHT22;12045;60.214;24.724;2024-03-06T00:24:16;-1.50;99.90
23729;DHT22;12045;60.214;24.724;2024-03-06T00:26:46;-2.50;99.90
23729;DHT22;12045;60.214;24.724;2024-03-06T00:29:15;-2.20;99.90
23729;DHT22;12045;60.214;24.724;2024-03-06T00:31:46;-2.10;99.90
23729;DHT22;12045;60.214;24.724;2024-03-06T00:34:13;-2.90;99.90
23729;DHT22;12045;60.214;24.724;2024-03-06T00:36:43;-2.10;99.90
23729;DHT22;12045;60.214;24.724;2024-03-06T00:39:13;-0.50;99.90
23729;DHT22;12045;60.214;24.724;2024-03-06T00:41:44;-2.30;99.90
23729;DHT22;12045;60.214;24.724;2024-03-06T00:44:15;-2.20;99.90
23729;DHT22;12045;60.214;24.724;2024-03-06T00:46:44;-2.20;99.90
23729;DHT22;12045;60.214;24.724;2024-03-06T00:49:12;-2.50;99.90
23729;DHT22;12045;60.214;24.724;2024-03-06T00:51:40;-2.50;99.90
23729;DHT22;12045;60.214;24.724;2024-03-06T00:54:15;-2.30;99.90
23729;DHT22;12045;60.214;24.724;2024-03-06T00:56:44;-2.50;99.90
23729;DHT22;12045;60.214;24.724;2024-03-06T00:59:15;-2.70;99.90
23729;DHT22;12045;60.214;24.724;2024-03-06T01:01:43;-2.50;99.90
23729;DHT22;12045;60.214;24.724;2024-03-06T01:04:12;-2.50;99.90
23729;DHT22;12045;60.214;24.724;2024-03-06T01:06:42;-2.50;99.90
23729;DHT22;12045;60.214;24.724;2024-03-06T01:09:11;-2.70;99.90
23729;DHT22;12045;60.214;24.724;2024-03-06T01:11:41;-2.80;99.90
23729;DHT22;12045;60.214;24.724;2024-03-06T01:14:09;-2.70;99.90
23729;DHT22;12045;60.214;24.724;2024-03-06T01:16:36;-2.90;99.90
23729;DHT22;12045;60.214;24.724;2024-03-06T01:19:05;-2.90;99.90
23729;DHT22;12045;60.214;24.724;2024-03-06T01:21:32;-2.80;99.90
23729;DHT22;12045;60.214;24.724;2024-03-06T01:24:02;-3.10;99.90
23729;DHT22;12045;60.214;24.724;2024-03-06T01:26:31;-1.30;99.90
23729;DHT22;12045;60.214;24.724;2024-03-06T01:28:59;-2.80;99.90
23729;DHT22;12045;60.214;24.724;2024-03-06T01:31:27;-2.80;99.90
23729;DHT22;12045;60.214;24.724;2024-03-06T01:33:55;-2.90;99.90
23729;DHT22;12045;60.214;24.724;2024-03-06T01:36:23;-3.00;99.90
23729;DHT22;12045;60.214;24.724;2024-03-06T01:38:51;-3.10;99.90
23729;DHT22;12045;60.214;24.724;2024-03-06T01:41:19;-3.30;99.90
23729;DHT22;12045;60.214;24.724;2024-03-06T01:43:47;-3.30;99.90
23729;DHT22;12045;60.214;24.724;2024-03-06T01:46:16;-3.40;99.90
23729;DHT22;12045;60.214;24.724;2024-03-06T01:48:44;-1.90;99.90
23729;DHT22;12045;60.214;24.724;2024-03-06T01:51:13;-3.40;99.90
23729;DHT22;12045;60.214;24.724;2024-03-06T01:53:40;-3.40;99.90
23729;DHT22;12045;60.214;24.724;2024-03-06T01:56:08;-3.50;99.90
23729;DHT22;12045;60.214;24.724;2024-03-06T01:58:39;-3.80;99.90
23729;DHT22;12045;60.214;24.724;2024-03-06T02:01:07;-3.10;99.90
23729;DHT22;12045;60.214;24.724;2024-03-06T02:03:36;-3.00;99.90
23729;DHT22;12045;60.214;24.724;2024-03-06T02:06:05;-3.10;99.90
23729;DHT22;12045;60.214;24.724;2024-03-06T02:08:33;-3.20;99.90
23729;DHT22;12045;60.214;24.724;2024-03-06T02:11:02;-3.00;99.90
23729;DHT22;12045;60.214;24.724;2024-03-06T02:13:30;-3.10;99.90
23729;DHT22;12045;60.214;24.724;2024-03-06T02:15:59;-3.10;99.90
23729;DHT22;12045;60.214;24.724;2024-03-06T02:18:26;-3.10;99.90
23729;DHT22;12045;60.214;24.724;2024-03-06T02:20:54;-3.10;99.90
23729;DHT22;12045;60.214;24.724;2024-03-06T02:23:21;-3.10;99.90
23729;DHT22;12045;60.214;24.724;2024-03-06T02:25:50;-3.00;99.90
23729;DHT22;12045;60.214;24.724;2024-03-06T02:28:18;-3.00;99.90
23729;DHT22;12045;60.214;24.724;2024-03-06T02:30:50;-3.10;99.90
23729;DHT22;12045;60.214;24.724;2024-03-06T02:33:18;-3.10;99.90
23729;DHT22;12045;60.214;24.724;2024-03-06T02:35:46;-3.50;99.90
23729;DHT22;12045;60.214;24.724;2024-03-06T02:38:15;-3.20;99.90
23729;DHT22;12045;60.214;24.724;2024-03-06T02:40:44;-3.30;99.90
23729;DHT22;12045;60.214;24.724;2024-03-06T02:43:12;-2.40;99.90
23729;DHT22;12045;60.214;24.724;2024-03-06T02:45:40;-3.30;99.90
23729;DHT22;12045;60.214;24.724;2024-03-06T02:48:09;-3.40;99.90
23729;DHT22;12045;60.214;24.724;2024-03-06T02:50:38;-3.20;99.90
23729;DHT22;12045;60.214;24.724;2024-03-06T02:53:07;-3.10;99.90
23729;DHT22;12045;60.214;24.724;2024-03-06T02:55:37;-3.30;99.90
23729;DHT22;12045;60.214;24.724;2024-03-06T02:58:05;-2.40;99.90
23729;DHT22;12045;60.214;24.724;2024-03-06T03:00:33;-2.20;99.90
23729;DHT22;12045;60.214;24.724;2024-03-06T03:03:00;-3.90;99.90
23729;DHT22;12045;60.214;24.724;2024-03-06T03:05:28;-3.50;99.90
23729;DHT22;12045;60.214;24.724;2024-03-06T03:07:59;-3.50;99.90
23729;DHT22;12045;60.214;24.724;2024-03-06T03:10:29;-3.60;99.90
23729;DHT22;12045;60.214;24.724;2024-03-06T03:12:56;-3.70;99.90
23729;DHT22;12045;60.214;24.724;2024-03-06T03:15:24;-3.90;99.90
23729;DHT22;12045;60.214;24.724;2024-03-06T03:17:52;-3.70;99.90
23729;DHT22;12045;60.214;24.724;2024-03-06T03:20:21;-3.70;99.90
23729;DHT22;12045;60.214;24.724;2024-03-06T03:22:49;-1.80;99.90
23729;DHT22;12045;60.214;24.724;2024-03-06T03:25:16;-3.60;99.90
23729;DHT22;12045;60.214;24.724;2024-03-06T03:27:44;-3.70;99.90
23729;DHT22;12045;60.214;24.724;2024-03-06T03:30:11;-4.10;99.90
23729;DHT22;12045;60.214;24.724;2024-03-06T03:32:40;-3.60;99.90
23729;DHT22;12045;60.214;24.724;2024-03-06T03:35:07;-3.80;99.90
23729;DHT22;12045;60.214;24.724;2024-03-06T03:37:36;-3.90;99.90
23729;DHT22;12045;60.214;24.724;2024-03-06T03:40:06;-3.20;99.90
23729;DHT22;12045;60.214;24.724;2024-03-06T03:42:35;-3.70;99.90
23729;DHT22;12045;60.214;24.724;2024-03-06T03:45:03;-4.10;99.90
23729;DHT22;12045;60.214;24.724;2024-03-06T03:47:30;-3.80;99.90
23729;DHT22;12045;60.214;24.724;2024-03-06T03:55:10;-3.80;99.90
23729;DHT22;12045;60.214;24.724;2024-03-06T03:57:38;-4.30;99.90
23729;DHT22;12045;60.214;24.724;2024-03-06T04:00:07;-4.50;99.90
23729;DHT22;12045;60.214;24.724;2024-03-06T04:02:39;-4.10;99.90
23729;DHT22;12045;60.214;24.724;2024-03-06T04:05:06;-4.10;99.90
23729;DHT22;12045;60.214;24.724;2024-03-06T04:19:57;-3.60;99.90
23729;DHT22;12045;60.214;24.724;2024-03-06T04:22:25;-4.50;99.90
23729;DHT22;12045;60.214;24.724;2024-03-06T04:24:53;-2.60;99.90
23729;DHT22;12045;60.214;24.724;2024-03-06T04:27:23;-4.30;99.90
23729;DHT22;12045;60.214;24.724;2024-03-06T04:32:22;-4.30;99.90
23729;DHT22;12045;60.214;24.724;2024-03-06T04:34:51;-4.50;99.90
23729;DHT22;12045;60.214;24.724;2024-03-06T04:37:20;-4.60;99.90
23729;DHT22;12045;60.214;24.724;2024-03-06T04:39:49;-4.50;99.90
23729;DHT22;12045;60.214;24.724;2024-03-06T04:42:17;-4.50;99.90
23729;DHT22;12045;60.214;24.724;2024-03-06T04:44:46;-4.70;99.90
23729;DHT22;12045;60.214;24.724;2024-03-06T04:47:15;-4.50;99.90
23729;DHT22;12045;60.214;24.724;2024-03-06T04:49:43;-4.40;99.90
23729;DHT22;12045;60.214;24.724;2024-03-06T04:57:12;-4.30;99.90
23729;DHT22;12045;60.214;24.724;2024-03-06T04:59:41;-5.30;99.90
23729;DHT22;12045;60.214;24.724;2024-03-06T05:02:09;-4.60;99.90
23729;DHT22;12045;60.214;24.724;2024-03-06T05:04:40;-4.90;99.90
23729;DHT22;12045;60.214;24.724;2024-03-06T05:07:24;-4.70;99.90
23729;DHT22;12045;60.214;24.724;2024-03-06T05:10:09;-4.40;99.90
23729;DHT22;12045;60.214;24.724;2024-03-06T05:12:54;-4.30;99.90
23729;DHT22;12045;60.214;24.724;2024-03-06T05:15:39;-4.10;99.90
23729;DHT22;12045;60.214;24.724;2024-03-06T05:18:23;-4.50;99.90
23729;DHT22;12045;60.214;24.724;2024-03-06T05:21:08;-4.40;99.90
23729;DHT22;12045;60.214;24.724;2024-03-06T05:23:53;-4.40;99.90
23729;DHT22;12045;60.214;24.724;2024-03-06T05:26:39;-4.50;99.90
23729;DHT22;12045;60.214;24.724;2024-03-06T05:29:23;-4.60;99.90
23729;DHT22;12045;60.214;24.724;2024-03-06T05:32:08;-5.40;99.90
23729;DHT22;12045;60.214;24.724;2024-03-06T05:34:53;-5.20;99.90
23729;DHT22;12045;60.214;24.724;2024-03-06T05:37:39;-4.40;99.90
23729;DHT22;12045;60.214;24.724;2024-03-06T05:40:24;-4.50;99.90
23729;DHT22;12045;60.214;24.724;2024-03-06T05:43:09;-4.40;99.90
23729;DHT22;12045;60.214;24.724;2024-03-06T05:45:56;-4.20;99.90
23729;DHT22;12045;60.214;24.724;2024-03-06T05:51:25;-4.20;99.90
23729;DHT22;12045;60.214;24.724;2024-03-06T05:54:11;-4.40;99.90
23729;DHT22;12045;60.214;24.724;2024-03-06T05:56:55;-4.40;99.90
23729;DHT22;12045;60.214;24.724;2024-03-06T05:59:41;-4.30;99.90
23729;DHT22;12045;60.214;24.724;2024-03-06T06:02:10;-4.40;99.90
23729;DHT22;12045;60.214;24.724;2024-03-06T06:04:37;-3.80;99.90
23729;DHT22;12045;60.214;24.724;2024-03-06T06:07:18;-4.10;99.90
23729;DHT22;12045;60.214;24.724;2024-03-06T06:09:48;-4.20;99.90
23729;DHT22;12045;60.214;24.724;2024-03-06T06:12:15;-4.20;99.90
23729;DHT22;12045;60.214;24.724;2024-03-06T06:14:43;-4.10;99.90
23729;DHT22;12045;60.214;24.724;2024-03-06T06:17:11;-3.90;99.90
23729;DHT22;12045;60.214;24.724;2024-03-06T06:19:43;-3.90;99.90
23729;DHT22;12045;60.214;24.724;2024-03-06T06:22:11;-4.10;99.90
23729;DHT22;12045;60.214;24.724;2024-03-06T06:24:39;-3.90;99.90
23729;DHT22;12045;60.214;24.724;2024-03-06T06:27:13;-1.90;99.90
23729;DHT22;12045;60.214;24.724;2024-03-06T06:29:41;-3.50;99.90
23729;DHT22;12045;60.214;24.724;2024-03-06T06:32:09;-3.50;99.90
23729;DHT22;12045;60.214;24.724;2024-03-06T06:34:37;-3.80;99.90
23729;DHT22;12045;60.214;24.724;2024-03-06T06:37:05;-3.60;99.90
23729;DHT22;12045;60.214;24.724;2024-03-06T06:39:33;-3.60;99.90
23729;DHT22;12045;60.214;24.724;2024-03-06T06:42:03;-3.40;99.90
23729;DHT22;12045;60.214;24.724;2024-03-06T06:44:31;-2.60;99.90
23729;DHT22;12045;60.214;24.724;2024-03-06T06:47:00;-3.20;99.90
23729;DHT22;12045;60.214;24.724;2024-03-06T06:54:25;-3.00;99.90
23729;DHT22;12045;60.214;24.724;2024-03-06T06:56:54;-3.20;99.90
23729;DHT22;12045;60.214;24.724;2024-03-06T06:59:22;-3.10;99.90
23729;DHT22;12045;60.214;24.724;2024-03-06T07:01:52;-0.40;99.90
23729;DHT22;12045;60.214;24.724;2024-03-06T07:04:20;-2.10;99.90
23729;DHT22;12045;60.214;24.724;2024-03-06T07:06:49;-2.70;99.90
23729;DHT22;12045;60.214;24.724;2024-03-06T07:09:20;-1.80;99.90
23729;DHT22;12045;60.214;24.724;2024-03-06T07:11:49;-2.80;99.90
23729;DHT22;12045;60.214;24.724;2024-03-06T07:14:19;-2.40;99.90
23729;DHT22;12045;60.214;24.724;2024-03-06T07:16:46;-2.10;99.90
23729;DHT22;12045;60.214;24.724;2024-03-06T07:19:15;-0.10;99.90
23729;DHT22;12045;60.214;24.724;2024-03-06T07:21:44;-2.30;99.90
23729;DHT22;12045;60.214;24.724;2024-03-06T07:24:12;-2.00;99.90
23729;DHT22;12045;60.214;24.724;2024-03-06T07:26:40;-0.70;99.90
23729;DHT22;12045;60.214;24.724;2024-03-06T07:29:09;-1.60;99.90
23729;DHT22;12045;60.214;24.724;2024-03-06T07:31:42;0.00;99.90
23729;DHT22;12045;60.214;24.724;2024-03-06T07:34:12;-1.50;99.90
23729;DHT22;12045;60.214;24.724;2024-03-06T07:39:16;-1.00;99.90
23729;DHT22;12045;60.214;24.724;2024-03-06T07:41:43;-0.60;99.90
23729;DHT22;12045;60.214;24.724;2024-03-06T07:44:10;0.30;99.90
23729;DHT22;12045;60.214;24.724;2024-03-06T07:46:39;-0.70;99.90
23729;DHT22;12045;60.214;24.724;2024-03-06T07:49:07;-0.60;99.90
23729;DHT22;12045;60.214;24.724;2024-03-06T07:51:41;-0.40;99.90
23729;DHT22;12045;60.214;24.724;2024-03-06T07:54:09;-0.40;99.90
23729;DHT22;12045;60.214;24.724;2024-03-06T07:56:38;1.10;99.90
23729;DHT22;12045;60.214;24.724;2024-03-06T07:59:07;0.80;99.90
23729;DHT22;12045;60.214;24.724;2024-03-06T08:01:35;-0.20;99.90
23729;DHT22;12045;60.214;24.724;2024-03-06T08:04:03;0.80;99.90
23729;DHT22;12045;60.214;24.724;2024-03-06T08:06:30;0.10;99.90
23729;DHT22;12045;60.214;24.724;2024-03-06T08:09:00;1.60;99.90
23729;DHT22;12045;60.214;24.724;2024-03-06T08:11:30;0.70;99.90
23729;DHT22;12045;60.214;24.724;2024-03-06T08:13:58;0.40;99.90
23729;DHT22;12045;60.214;24.724;2024-03-06T08:16:30;0.50;99.90
23729;DHT22;12045;60.214;24.724;2024-03-06T08:19:03;1.20;99.90
23729;DHT22;12045;60.214;24.724;2024-03-06T08:21:32;0.30;99.90
23729;DHT22;12045;60.214;24.724;2024-03-06T08:23:59;0.90;99.90
23729;DHT22;12045;60.214;24.724;2024-03-06T08:26:30;1.50;99.90
23729;DHT22;12045;60.214;24.724;2024-03-06T08:28:59;1.30;99.90
23729;DHT22;12045;60.214;24.724;2024-03-06T08:31:30;1.50;99.90
23729;DHT22;12045;60.214;24.724;2024-03-06T08:33:59;1.50;99.90
23729;DHT22;12045;60.214;24.724;2024-03-06T08:36:27;1.60;99.90
23729;DHT22;12045;60.214;24.724;2024-03-06T08:38:55;0.40;99.90
23729;DHT22;12045;60.214;24.724;2024-03-06T08:41:22;1.60;99.90
23729;DHT22;12045;60.214;24.724;2024-03-06T08:43:51;1.50;99.90
23729;DHT22;12045;60.214;24.724;2024-03-06T08:46:18;1.80;99.90
23729;DHT22;12045;60.214;24.724;2024-03-06T08:48:47;1.80;99.90
23729;DHT22;12045;60.214;24.724;2024-03-06T08:51:16;1.70;99.90
23729;DHT22;12045;60.214;24.724;2024-03-06T08:53:45;1.40;99.90
23729;DHT22;12045;60.214;24.724;2024-03-06T08:56:13;1.60;99.90
23729;DHT22;12045;60.214;24.724;2024-03-06T08:58:41;1.30;99.90
23729;DHT22;12045;60.214;24.724;2024-03-06T09:01:09;1.20;99.90
23729;DHT22;12045;60.214;24.724;2024-03-06T09:03:36;1.70;99.90
23729;DHT22;12045;60.214;24.724;2024-03-06T09:06:04;2.10;99.90
23729;DHT22;12045;60.214;24.724;2024-03-06T09:08:32;1.70;99.90
23729;DHT22;12045;60.214;24.724;2024-03-06T09:11:01;2.10;99.90
23729;DHT22;12045;60.214;24.724;2024-03-06T09:13:28;2.40;99.90
23729;DHT22;12045;60.214;24.724;2024-03-06T09:15:58;2.50;99.90
23729;DHT22;12045;60.214;24.724;2024-03-06T09:18:29;2.20;99.90
23729;DHT22;12045;60.214;24.724;2024-03-06T09:20:58;2.20;99.90
23729;DHT22;12045;60.214;24.724;2024-03-06T09:23:26;2.50;99.90
23729;DHT22;12045;60.214;24.724;2024-03-06T09:25:53;2.80;99.90
23729;DHT22;12045;60.214;24.724;2024-03-06T09:28:22;2.20;99.90
23729;DHT22;12045;60.214;24.724;2024-03-06T09:30:51;2.40;99.90
23729;DHT22;12045;60.214;24.724;2024-03-06T09:33:18;2.90;99.90
23729;DHT22;12045;60.214;24.724;2024-03-06T09:35:48;2.60;99.90
23729;DHT22;12045;60.214;24.724;2024-03-06T09:38:16;2.80;99.90
23729;DHT22;12045;60.214;24.724;2024-03-06T09:40:58;2.60;99.90
23729;DHT22;12045;60.214;24.724;2024-03-06T09:43:26;3.30;99.90
23729;DHT22;12045;60.214;24.724;2024-03-06T09:45:57;3.00;99.90
23729;DHT22;12045;60.214;24.724;2024-03-06T09:48:25;3.00;99.90
23729;DHT22;12045;60.214;24.724;2024-03-06T09:50:57;2.50;99.90
23729;DHT22;12045;60.214;24.724;2024-03-06T09:53:27;3.30;99.90
23729;DHT22;12045;60.214;24.724;2024-03-06T09:55:56;3.00;99.90
23729;DHT22;12045;60.214;24.724;2024-03-06T09:58:26;3.40;99.90
23729;DHT22;12045;60.214;24.724;2024-03-06T10:00:55;3.10;99.90
23729;DHT22;12045;60.214;24.724;2024-03-06T10:03:27;3.40;99.90
23729;DHT22;12045;60.214;24.724;2024-03-06T10:05:54;2.70;99.90
23729;DHT22;12045;60.214;24.724;2024-03-06T10:08:26;2.90;99.90
23729;DHT22;12045;60.214;24.724;2024-03-06T10:10:55;3.50;99.90
23729;DHT22;12045;60.214;24.724;2024-03-06T10:13:25;2.90;99.90
23729;DHT22;12045;60.214;24.724;2024-03-06T10:16:00;3.50;99.90
23729;DHT22;12045;60.214;24.724;2024-03-06T10:18:41;2.80;99.90
23729;DHT22;12045;60.214;24.724;2024-03-06T10:21:10;3.40;99.90
23729;DHT22;12045;60.214;24.724;2024-03-06T10:23:37;3.40;99.90
23729;DHT22;12045;60.214;24.724;2024-03-06T10:26:07;3.80;99.90
23729;DHT22;12045;60.214;24.724;2024-03-06T10:28:36;4.50;99.90
23729;DHT22;12045;60.214;24.724;2024-03-06T10:31:05;5.10;99.90
23729;DHT22;12045;60.214;24.724;2024-03-06T10:33:38;5.50;99.90
23729;DHT22;12045;60.214;24.724;2024-03-06T10:36:10;5.20;99.90
23729;DHT22;12045;60.214;24.724;2024-03-06T10:38:42;5.00;99.90
23729;DHT22;12045;60.214;24.724;2024-03-06T10:41:17;5.50;99.90
23729;DHT22;12045;60.214;24.724;2024-03-06T10:43:50;5.30;99.90
23729;DHT22;12045;60.214;24.724;2024-03-06T10:46:27;4.70;99.90
23729;DHT22;12045;60.214;24.724;2024-03-06T10:48:56;4.90;99.90
23729;DHT22;12045;60.214;24.724;2024-03-06T10:51:26;5.50;99.90
23729;DHT22;12045;60.214;24.724;2024-03-06T10:53:57;5.50;99.60
23729;DHT22;12045;60.214;24.724;2024-03-06T10:56:26;4.60;99.40
23729;DHT22;12045;60.214;24.724;2024-03-06T10:58:57;5.30;99.90
23729;DHT22;12045;60.214;24.724;2024-03-06T11:01:27;6.10;99.90
23729;DHT22;12045;60.214;24.724;2024-03-06T11:04:01;6.30;99.90
23729;DHT22;12045;60.214;24.724;2024-03-06T11:06:31;6.60;96.70
23729;DHT22;12045;60.214;24.724;2024-03-06T11:09:01;6.80;93.10
23729;DHT22;12045;60.214;24.724;2024-03-06T11:11:31;6.90;93.20
23729;DHT22;12045;60.214;24.724;2024-03-06T11:14:04;6.50;88.50
23729;DHT22;12045;60.214;24.724;2024-03-06T11:16:33;6.50;89.60
23729;DHT22;12045;60.214;24.724;2024-03-06T11:19:20;6.40;89.70
23729;DHT22;12045;60.214;24.724;2024-03-06T11:21:48;6.40;90.60
23729;DHT22;12045;60.214;24.724;2024-03-06T11:24:18;6.50;89.30
23729;DHT22;12045;60.214;24.724;2024-03-06T11:26:55;6.50;90.80
23729;DHT22;12045;60.214;24.724;2024-03-06T11:30:02;6.60;89.30
23729;DHT22;12045;60.214;24.724;2024-03-06T11:32:19;6.20;88.70
23729;DHT22;12045;60.214;24.724;2024-03-06T11:34:46;5.70;90.30
23729;DHT22;12045;60.214;24.724;2024-03-06T11:37:20;5.50;91.20
23729;DHT22;12045;60.214;24.724;2024-03-06T11:39:51;5.60;91.20
23729;DHT22;12045;60.214;24.724;2024-03-06T11:42:33;5.60;92.20
23729;DHT22;12045;60.214;24.724;2024-03-06T11:45:13;5.60;92.00
23729;DHT22;12045;60.214;24.724;2024-03-06T11:48:01;5.50;92.30
23729;DHT22;12045;60.214;24.724;2024-03-06T11:50:30;5.50;92.80
23729;DHT22;12045;60.214;24.724;2024-03-06T11:55:37;5.60;93.30
23729;DHT22;12045;60.214;24.724;2024-03-06T11:58:09;5.80;92.40
23729;DHT22;12045;60.214;24.724;2024-03-06T12:00:41;5.60;92.60
23729;DHT22;12045;60.214;24.724;2024-03-06T12:05:52;4.90;96.80
23729;DHT22;12045;60.214;24.724;2024-03-06T12:08:21;5.20;94.50
23729;DHT22;12045;60.214;24.724;2024-03-06T12:10:52;5.10;95.30
23729;DHT22;12045;60.214;24.724;2024-03-06T12:13:24;5.00;95.20
23729;DHT22;12045;60.214;24.724;2024-03-06T12:15:54;4.80;94.70
23729;DHT22;12045;60.214;24.724;2024-03-06T12:18:24;5.70;95.50
23729;DHT22;12045;60.214;24.724;2024-03-06T12:20:54;4.70;93.90
23729;DHT22;12045;60.214;24.724;2024-03-06T12:23:22;4.60;94.00
23729;DHT22;12045;60.214;24.724;2024-03-06T12:26:04;4.60;94.70
23729;DHT22;12045;60.214;24.724;2024-03-06T12:28:33;4.60;93.40
23729;DHT22;12045;60.214;24.724;2024-03-06T12:31:04;5.00;94.00
23729;DHT22;12045;60.214;24.724;2024-03-06T12:33:33;4.60;93.10
23729;DHT22;12045;60.214;24.724;2024-03-06T12:36:06;4.80;94.40
23729;DHT22;12045;60.214;24.724;2024-03-06T12:38:37;4.90;94.20
23729;DHT22;12045;60.214;24.724;2024-03-06T12:41:06;5.30;92.00
23729;DHT22;12045;60.214;24.724;2024-03-06T12:43:35;4.90;92.00
23729;DHT22;12045;60.214;24.724;2024-03-06T12:46:02;5.10;92.60
23729;DHT22;12045;60.214;24.724;2024-03-06T12:48:32;5.00;92.30
23729;DHT22;12045;60.214;24.724;2024-03-06T12:51:01;5.60;90.90
23729;DHT22;12045;60.214;24.724;2024-03-06T12:53:33;5.10;89.50
23729;DHT22;12045;60.214;24.724;2024-03-06T12:56:03;5.00;90.90
23729;DHT22;12045;60.214;24.724;2024-03-06T12:58:31;4.90;90.60
23729;DHT22;12045;60.214;24.724;2024-03-06T13:00:59;4.90;89.90
23729;DHT22;12045;60.214;24.724;2024-03-06T13:03:28;4.50;90.20
23729;DHT22;12045;60.214;24.724;2024-03-06T13:05:58;5.20;84.50
23729;DHT22;12045;60.214;24.724;2024-03-06T13:08:27;5.20;85.20
23729;DHT22;12045;60.214;24.724;2024-03-06T13:10:55;5.20;84.00
23729;DHT22;12045;60.214;24.724;2024-03-06T13:13:23;5.20;83.70
23729;DHT22;12045;60.214;24.724;2024-03-06T13:15:51;5.30;83.60
23729;DHT22;12045;60.214;24.724;2024-03-06T13:18:20;5.30;83.70
23729;DHT22;12045;60.214;24.724;2024-03-06T13:20:49;5.30;83.00
23729;DHT22;12045;60.214;24.724;2024-03-06T13:23:18;5.40;85.10
23729;DHT22;12045;60.214;24.724;2024-03-06T13:25:47;5.40;82.60
23729;DHT22;12045;60.214;24.724;2024-03-06T13:28:17;5.50;81.90
23729;DHT22;12045;60.214;24.724;2024-03-06T13:30:47;5.40;77.70
23729;DHT22;12045;60.214;24.724;2024-03-06T13:33:15;5.70;75.20
23729;DHT22;12045;60.214;24.724;2024-03-06T13:35:44;5.50;76.20
23729;DHT22;12045;60.214;24.724;2024-03-06T13:38:14;5.30;75.70
23729;DHT22;12045;60.214;24.724;2024-03-06T13:40:42;5.30;75.90
23729;DHT22;12045;60.214;24.724;2024-03-06T13:43:09;5.30;74.30
23729;DHT22;12045;60.214;24.724;2024-03-06T13:45:51;5.30;74.70
23729;DHT22;12045;60.214;24.724;2024-03-06T13:48:20;5.80;76.60
23729;DHT22;12045;60.214;24.724;2024-03-06T13:50:51;5.60;78.40
23729;DHT22;12045;60.214;24.724;2024-03-06T13:53:19;5.10;75.70
23729;DHT22;12045;60.214;24.724;2024-03-06T13:55:47;5.20;74.70
23729;DHT22;12045;60.214;24.724;2024-03-06T13:58:14;5.20;75.80
23729;DHT22;12045;60.214;24.724;2024-03-06T14:00:43;5.10;75.40
23729;DHT22;12045;60.214;24.724;2024-03-06T14:03:12;5.20;76.30
23729;DHT22;12045;60.214;24.724;2024-03-06T14:05:40;5.30;79.00
23729;DHT22;12045;60.214;24.724;2024-03-06T14:08:07;5.10;76.40
23729;DHT22;12045;60.214;24.724;2024-03-06T14:10:42;5.20;76.20
23729;DHT22;12045;60.214;24.724;2024-03-06T14:13:10;5.70;77.00
23729;DHT22;12045;60.214;24.724;2024-03-06T14:15:39;5.10;78.10
23729;DHT22;12045;60.214;24.724;2024-03-06T14:18:07;5.20;77.50
23729;DHT22;12045;60.214;24.724;2024-03-06T14:20:35;5.30;77.40
23729;DHT22;12045;60.214;24.724;2024-03-06T14:23:02;4.90;76.90
23729;DHT22;12045;60.214;24.724;2024-03-06T14:25:31;5.00;78.30
23729;DHT22;12045;60.214;24.724;2024-03-06T14:28:04;5.40;81.10
23729;DHT22;12045;60.214;24.724;2024-03-06T14:30:33;5.00;80.80
23729;DHT22;12045;60.214;24.724;2024-03-06T14:33:01;5.40;80.80
23729;DHT22;12045;60.214;24.724;2024-03-06T14:35:29;5.30;80.90
23729;DHT22;12045;60.214;24.724;2024-03-06T14:37:58;5.00;81.50
23729;DHT22;12045;60.214;24.724;2024-03-06T14:40:28;4.90;81.50
23729;DHT22;12045;60.214;24.724;2024-03-06T14:42:57;5.20;84.50
23729;DHT22;12045;60.214;24.724;2024-03-06T14:45:25;4.90;83.00
23729;DHT22;12045;60.214;24.724;2024-03-06T14:47:53;4.80;83.50
23729;DHT22;12045;60.214;24.724;2024-03-06T14:50:20;5.30;84.30
23729;DHT22;12045;60.214;24.724;2024-03-06T14:52:49;4.80;86.00
23729;DHT22;12045;60.214;24.724;2024-03-06T14:55:17;5.30;87.30
23729;DHT22;12045;60.214;24.724;2024-03-06T14:57:45;4.70;87.00
23729;DHT22;12045;60.214;24.724;2024-03-06T15:00:13;5.10;86.40
23729;DHT22;12045;60.214;24.724;2024-03-06T15:02:42;4.80;86.50
23729;DHT22;12045;60.214;24.724;2024-03-06T15:05:11;5.10;86.00
23729;DHT22;12045;60.214;24.724;2024-03-06T15:07:40;5.30;88.10
23729;DHT22;12045;60.214;24.724;2024-03-06T15:10:09;4.80;87.00
23729;DHT22;12045;60.214;24.724;2024-03-06T15:12:37;4.80;86.10
23729;DHT22;12045;60.214;24.724;2024-03-06T15:15:11;4.80;87.60
23729;DHT22;12045;60.214;24.724;2024-03-06T15:17:40;4.80;87.10
23729;DHT22;12045;60.214;24.724;2024-03-06T15:20:09;4.80;85.40
23729;DHT22;12045;60.214;24.724;2024-03-06T15:22:38;4.80;86.70
23729;DHT22;12045;60.214;24.724;2024-03-06T15:25:12;4.70;85.60
23729;DHT22;12045;60.214;24.724;2024-03-06T15:27:41;5.10;86.60
23729;DHT22;12045;60.214;24.724;2024-03-06T15:32:38;4.70;85.20
23729;DHT22;12045;60.214;24.724;2024-03-06T15:35:08;4.90;86.30
23729;DHT22;12045;60.214;24.724;2024-03-06T15:37:37;4.70;86.70
23729;DHT22;12045;60.214;24.724;2024-03-06T15:40:06;4.70;85.90
23729;DHT22;12045;60.214;24.724;2024-03-06T15:42:34;4.70;86.80
23729;DHT22;12045;60.214;24.724;2024-03-06T15:45:03;4.60;86.70
23729;DHT22;12045;60.214;24.724;2024-03-06T15:47:32;4.60;87.90
23729;DHT22;12045;60.214;24.724;2024-03-06T15:50:02;4.50;87.70
23729;DHT22;12045;60.214;24.724;2024-03-06T15:52:30;4.40;90.10
23729;DHT22;12045;60.214;24.724;2024-03-06T15:54:59;4.20;89.80
23729;DHT22;12045;60.214;24.724;2024-03-06T15:57:27;4.10;89.20
23729;DHT22;12045;60.214;24.724;2024-03-06T15:59:55;4.10;90.00
23729;DHT22;12045;60.214;24.724;2024-03-06T16:02:23;4.00;90.30
23729;DHT22;12045;60.214;24.724;2024-03-06T16:04:53;3.90;90.10
23729;DHT22;12045;60.214;24.724;2024-03-06T16:07:21;4.10;92.30
23729;DHT22;12045;60.214;24.724;2024-03-06T16:09:50;3.90;92.10
23729;DHT22;12045;60.214;24.724;2024-03-06T16:12:20;3.90;92.70
23729;DHT22;12045;60.214;24.724;2024-03-06T16:14:47;3.90;91.10
23729;DHT22;12045;60.214;24.724;2024-03-06T16:17:16;3.70;91.70
23729;DHT22;12045;60.214;24.724;2024-03-06T16:19:45;3.80;91.50
23729;DHT22;12045;60.214;24.724;2024-03-06T16:22:14;4.10;91.80
23729;DHT22;12045;60.214;24.724;2024-03-06T16:24:42;3.80;92.00
23729;DHT22;12045;60.214;24.724;2024-03-06T16:27:10;3.50;93.20